sensor_id;sensor_type;location;lat;lon;timestamp;P1;durP1;ratioP1;P2;durP2;ratioP2
946;SDS011;460;48.734;9.152;2023-06-04T00:01:30;3.40;;;2.90;;
946;SDS011;460;48.734;9.152;2023-06-04T00:03:57;4.90;;;3.40;;
946;SDS011;460;48.734;9.152;2023-06-04T00:06:23;3.20;;;2.80;;
946;SDS011;460;48.734;9.152;2023-06-04T00:08:51;5.43;;;2.90;;
946;SDS011;460;48.734;9.152;2023-06-04T00:11:18;3.07;;;2.77;;
946;SDS011;460;48.734;9.152;2023-06-04T00:13:45;3.67;;;3.23;;
946;SDS011;460;48.734;9.152;2023-06-04T00:16:12;6.03;;;3.53;;
946;SDS011;460;48.734;9.152;2023-06-04T00:18:39;3.20;;;2.90;;
946;SDS011;460;48.734;9.152;2023-06-04T00:21:06;3.27;;;2.87;;
946;SDS011;460;48.734;9.152;2023-06-04T00:23:33;3.60;;;3.30;;
946;SDS011;460;48.734;9.152;2023-06-04T00:26:01;5.93;;;3.97;;
946;SDS011;460;48.734;9.152;2023-06-04T00:28:28;3.83;;;2.53;;
946;SDS011;460;48.734;9.152;2023-06-04T00:30:55;5.37;;;3.07;;
946;SDS011;460;48.734;9.152;2023-06-04T00:33:21;3.83;;;2.70;;
946;SDS011;460;48.734;9.152;2023-06-04T00:35:48;4.63;;;2.97;;
946;SDS011;460;48.734;9.152;2023-06-04T00:38:15;3.27;;;2.97;;
946;SDS011;460;48.734;9.152;2023-06-04T00:40:42;2.33;;;2.13;;
946;SDS011;460;48.734;9.152;2023-06-04T00:43:10;4.97;;;3.50;;
946;SDS011;460;48.734;9.152;2023-06-04T00:45:38;3.33;;;2.70;;
946;SDS011;460;48.734;9.152;2023-06-04T00:48:05;3.43;;;2.80;;
946;SDS011;460;48.734;9.152;2023-06-04T00:50:32;4.90;;;3.60;;
946;SDS011;460;48.734;9.152;2023-06-04T00:53:00;3.17;;;1.93;;
946;SDS011;460;48.734;9.152;2023-06-04T00:55:27;2.97;;;2.67;;
946;SDS011;460;48.734;9.152;2023-06-04T00:57:54;3.07;;;2.83;;
946;SDS011;460;48.734;9.152;2023-06-04T01:00:23;3.50;;;2.97;;
946;SDS011;460;48.734;9.152;2023-06-04T01:02:49;4.00;;;3.00;;
946;SDS011;460;48.734;9.152;2023-06-04T01:05:19;5.00;;;3.30;;
946;SDS011;460;48.734;9.152;2023-06-04T01:08:04;6.23;;;2.97;;
946;SDS011;460;48.734;9.152;2023-06-04T01:10:34;4.93;;;2.93;;
946;SDS011;460;48.734;9.152;2023-06-04T01:13:01;3.33;;;3.03;;
946;SDS011;460;48.734;9.152;2023-06-04T01:15:30;3.70;;;3.30;;
946;SDS011;460;48.734;9.152;2023-06-04T01:17:58;3.37;;;2.90;;
946;SDS011;460;48.734;9.152;2023-06-04T01:20:30;3.87;;;2.33;;
946;SDS011;460;48.734;9.152;2023-06-04T01:23:14;3.17;;;2.73;;
946;SDS011;460;48.734;9.152;2023-06-04T01:26:00;3.43;;;2.93;;
946;SDS011;460;48.734;9.152;2023-06-04T01:28:29;3.50;;;2.93;;
946;SDS011;460;48.734;9.152;2023-06-04T01:31:00;4.73;;;3.60;;
946;SDS011;460;48.734;9.152;2023-06-04T01:33:29;5.80;;;3.40;;
946;SDS011;460;48.734;9.152;2023-06-04T01:35:55;2.87;;;2.27;;
946;SDS011;460;48.734;9.152;2023-06-04T01:38:23;3.63;;;3.33;;
946;SDS011;460;48.734;9.152;2023-06-04T01:40:50;4.17;;;2.70;;
946;SDS011;460;48.734;9.152;2023-06-04T01:43:21;6.53;;;3.83;;
946;SDS011;460;48.734;9.152;2023-06-04T01:45:48;5.43;;;3.27;;
946;SDS011;460;48.734;9.152;2023-06-04T01:48:17;4.10;;;2.90;;
946;SDS011;460;48.734;9.152;2023-06-04T01:50:46;8.13;;;3.87;;
946;SDS011;460;48.734;9.152;2023-06-04T01:53:13;4.23;;;3.13;;
946;SDS011;460;48.734;9.152;2023-06-04T01:55:41;3.00;;;2.70;;
946;SDS011;460;48.734;9.152;2023-06-04T01:58:09;3.30;;;2.73;;
946;SDS011;460;48.734;9.152;2023-06-04T02:00:36;2.90;;;2.70;;
946;SDS011;460;48.734;9.152;2023-06-04T02:03:04;2.23;;;2.03;;
946;SDS011;460;48.734;9.152;2023-06-04T02:05:32;6.27;;;2.73;;
946;SDS011;460;48.734;9.152;2023-06-04T02:08:00;3.70;;;2.80;;
946;SDS011;460;48.734;9.152;2023-06-04T02:10:31;4.80;;;3.33;;
946;SDS011;460;48.734;9.152;2023-06-04T02:13:00;2.93;;;2.47;;
946;SDS011;460;48.734;9.152;2023-06-04T02:15:29;2.47;;;2.27;;
946;SDS011;460;48.734;9.152;2023-06-04T02:17:57;3.80;;;2.53;;
946;SDS011;460;48.734;9.152;2023-06-04T02:20:25;3.63;;;3.00;;
946;SDS011;460;48.734;9.152;2023-06-04T02:22:54;4.50;;;2.70;;
946;SDS011;460;48.734;9.152;2023-06-04T02:25:21;3.57;;;3.03;;
946;SDS011;460;48.734;9.152;2023-06-04T02:27:48;4.87;;;2.57;;
946;SDS011;460;48.734;9.152;2023-06-04T02:30:15;3.10;;;2.80;;
946;SDS011;460;48.734;9.152;2023-06-04T02:32:42;4.17;;;3.20;;
946;SDS011;460;48.734;9.152;2023-06-04T02:35:10;4.37;;;2.83;;
946;SDS011;460;48.734;9.152;2023-06-04T02:37:38;4.90;;;3.40;;
946;SDS011;460;48.734;9.152;2023-06-04T02:40:08;3.57;;;2.60;;
946;SDS011;460;48.734;9.152;2023-06-04T02:42:36;3.07;;;2.80;;
946;SDS011;460;48.734;9.152;2023-06-04T02:45:04;5.53;;;3.80;;
946;SDS011;460;48.734;9.152;2023-06-04T02:47:33;2.70;;;2.50;;
946;SDS011;460;48.734;9.152;2023-06-04T02:50:01;2.83;;;2.63;;
946;SDS011;460;48.734;9.152;2023-06-04T02:52:28;3.73;;;3.20;;
946;SDS011;460;48.734;9.152;2023-06-04T02:54:59;4.53;;;3.00;;
946;SDS011;460;48.734;9.152;2023-06-04T02:57:30;9.40;;;3.57;;
946;SDS011;460;48.734;9.152;2023-06-04T02:59:57;5.90;;;3.70;;
946;SDS011;460;48.734;9.152;2023-06-04T03:02:25;4.47;;;3.07;;
946;SDS011;460;48.734;9.152;2023-06-04T03:04:53;2.70;;;2.50;;
946;SDS011;460;48.734;9.152;2023-06-04T03:07:21;3.23;;;2.30;;
946;SDS011;460;48.734;9.152;2023-06-04T03:09:48;4.23;;;3.20;;
946;SDS011;460;48.734;9.152;2023-06-04T03:12:16;3.03;;;2.80;;
946;SDS011;460;48.734;9.152;2023-06-04T03:14:45;3.10;;;2.67;;
946;SDS011;460;48.734;9.152;2023-06-04T03:17:12;2.40;;;2.20;;
946;SDS011;460;48.734;9.152;2023-06-04T03:19:39;4.60;;;2.90;;
946;SDS011;460;48.734;9.152;2023-06-04T03:22:07;5.03;;;2.57;;
946;SDS011;460;48.734;9.152;2023-06-04T03:24:36;4.60;;;2.67;;
946;SDS011;460;48.734;9.152;2023-06-04T03:27:05;8.73;;;3.60;;
946;SDS011;460;48.734;9.152;2023-06-04T03:29:33;3.00;;;2.80;;
946;SDS011;460;48.734;9.152;2023-06-04T03:32:02;3.67;;;3.10;;
946;SDS011;460;48.734;9.152;2023-06-04T03:34:29;4.40;;;2.97;;
946;SDS011;460;48.734;9.152;2023-06-04T03:36:58;2.53;;;2.33;;
946;SDS011;460;48.734;9.152;2023-06-04T03:39:25;4.50;;;2.33;;
946;SDS011;460;48.734;9.152;2023-06-04T03:41:53;6.60;;;2.60;;
946;SDS011;460;48.734;9.152;2023-06-04T03:44:21;2.47;;;2.00;;
946;SDS011;460;48.734;9.152;2023-06-04T03:46:48;7.27;;;2.03;;
946;SDS011;460;48.734;9.152;2023-06-04T03:49:18;2.50;;;2.30;;
946;SDS011;460;48.734;9.152;2023-06-04T03:51:45;1.93;;;1.80;;
946;SDS011;460;48.734;9.152;2023-06-04T03:54:12;6.30;;;2.70;;
946;SDS011;460;48.734;9.152;2023-06-04T03:56:42;4.23;;;2.60;;
946;SDS011;460;48.734;9.152;2023-06-04T03:59:09;3.00;;;2.80;;
946;SDS011;460;48.734;9.152;2023-06-04T04:01:37;3.30;;;1.90;;
946;SDS011;460;48.734;9.152;2023-06-04T04:04:04;3.23;;;2.37;;
946;SDS011;460;48.734;9.152;2023-06-04T04:06:32;5.23;;;2.53;;
946;SDS011;460;48.734;9.152;2023-06-04T04:09:00;2.20;;;2.00;;
946;SDS011;460;48.734;9.152;2023-06-04T04:11:28;2.70;;;2.33;;
946;SDS011;460;48.734;9.152;2023-06-04T04:13:56;2.30;;;1.93;;
946;SDS011;460;48.734;9.152;2023-06-04T04:16:23;2.57;;;2.33;;
946;SDS011;460;48.734;9.152;2023-06-04T04:18:50;4.43;;;2.57;;
946;SDS011;460;48.734;9.152;2023-06-04T04:21:17;2.03;;;1.70;;
946;SDS011;460;48.734;9.152;2023-06-04T04:23:45;2.97;;;2.70;;
946;SDS011;460;48.734;9.152;2023-06-04T04:26:12;1.87;;;1.77;;
946;SDS011;460;48.734;9.152;2023-06-04T04:28:41;1.60;;;1.50;;
946;SDS011;460;48.734;9.152;2023-06-04T04:31:08;3.80;;;2.63;;
946;SDS011;460;48.734;9.152;2023-06-04T04:33:35;2.00;;;1.67;;
946;SDS011;460;48.734;9.152;2023-06-04T04:36:04;2.87;;;1.80;;
946;SDS011;460;48.734;9.152;2023-06-04T04:38:33;1.80;;;1.70;;
946;SDS011;460;48.734;9.152;2023-06-04T04:41:03;3.20;;;1.90;;
946;SDS011;460;48.734;9.152;2023-06-04T04:43:30;1.67;;;1.53;;
946;SDS011;460;48.734;9.152;2023-06-04T04:45:58;2.40;;;1.73;;
946;SDS011;460;48.734;9.152;2023-06-04T04:48:25;2.60;;;1.47;;
946;SDS011;460;48.734;9.152;2023-06-04T04:50:52;2.40;;;1.97;;
946;SDS011;460;48.734;9.152;2023-06-04T04:53:19;2.60;;;1.60;;
946;SDS011;460;48.734;9.152;2023-06-04T04:55:49;2.03;;;1.87;;
946;SDS011;460;48.734;9.152;2023-06-04T04:58:17;1.83;;;1.50;;
946;SDS011;460;48.734;9.152;2023-06-04T05:00:44;1.40;;;1.30;;
946;SDS011;460;48.734;9.152;2023-06-04T05:03:12;2.57;;;2.10;;
946;SDS011;460;48.734;9.152;2023-06-04T05:05:39;2.97;;;2.47;;
946;SDS011;460;48.734;9.152;2023-06-04T05:08:06;2.03;;;1.53;;
946;SDS011;460;48.734;9.152;2023-06-04T05:10:33;1.73;;;1.60;;
946;SDS011;460;48.734;9.152;2023-06-04T05:13:01;1.63;;;1.53;;
946;SDS011;460;48.734;9.152;2023-06-04T05:15:31;2.40;;;2.30;;
946;SDS011;460;48.734;9.152;2023-06-04T05:17:58;2.10;;;1.93;;
946;SDS011;460;48.734;9.152;2023-06-04T05:20:26;2.23;;;2.13;;
946;SDS011;460;48.734;9.152;2023-06-04T05:22:53;2.33;;;2.03;;
946;SDS011;460;48.734;9.152;2023-06-04T05:25:21;1.90;;;1.60;;
946;SDS011;460;48.734;9.152;2023-06-04T05:27:47;3.03;;;2.00;;
946;SDS011;460;48.734;9.152;2023-06-04T05:30:16;1.67;;;1.47;;
946;SDS011;460;48.734;9.152;2023-06-04T05:32:44;1.67;;;1.57;;
946;SDS011;460;48.734;9.152;2023-06-04T05:35:11;2.93;;;2.40;;
946;SDS011;460;48.734;9.152;2023-06-04T05:37:38;2.10;;;1.63;;
946;SDS011;460;48.734;9.152;2023-06-04T05:40:07;1.93;;;1.60;;
946;SDS011;460;48.734;9.152;2023-06-04T05:42:35;2.30;;;1.40;;
946;SDS011;460;48.734;9.152;2023-06-04T05:45:02;1.40;;;1.30;;
946;SDS011;460;48.734;9.152;2023-06-04T05:47:30;2.80;;;2.00;;
946;SDS011;460;48.734;9.152;2023-06-04T05:49:58;3.20;;;1.60;;
946;SDS011;460;48.734;9.152;2023-06-04T05:52:25;1.70;;;1.33;;
946;SDS011;460;48.734;9.152;2023-06-04T05:54:52;2.00;;;1.87;;
946;SDS011;460;48.734;9.152;2023-06-04T05:57:19;2.00;;;1.80;;
946;SDS011;460;48.734;9.152;2023-06-04T05:59:46;3.20;;;1.70;;
946;SDS011;460;48.734;9.152;2023-06-04T06:02:13;1.50;;;1.30;;
946;SDS011;460;48.734;9.152;2023-06-04T06:04:40;1.73;;;1.47;;
946;SDS011;460;48.734;9.152;2023-06-04T06:07:08;1.50;;;1.40;;
946;SDS011;460;48.734;9.152;2023-06-04T06:09:35;1.70;;;1.50;;
946;SDS011;460;48.734;9.152;2023-06-04T06:12:02;2.47;;;2.30;;
946;SDS011;460;48.734;9.152;2023-06-04T06:14:30;1.90;;;1.10;;
946;SDS011;460;48.734;9.152;2023-06-04T06:16:57;2.77;;;1.80;;
946;SDS011;460;48.734;9.152;2023-06-04T06:19:24;1.63;;;1.50;;
946;SDS011;460;48.734;9.152;2023-06-04T06:21:51;2.20;;;1.00;;
946;SDS011;460;48.734;9.152;2023-06-04T06:24:19;1.30;;;1.20;;
946;SDS011;460;48.734;9.152;2023-06-04T06:26:46;1.60;;;1.27;;
946;SDS011;460;48.734;9.152;2023-06-04T06:29:13;1.03;;;0.90;;
946;SDS011;460;48.734;9.152;2023-06-04T06:31:39;1.77;;;1.33;;
946;SDS011;460;48.734;9.152;2023-06-04T06:34:06;1.50;;;1.40;;
946;SDS011;460;48.734;9.152;2023-06-04T06:36:33;1.73;;;1.13;;
946;SDS011;460;48.734;9.152;2023-06-04T06:39:00;1.20;;;1.10;;
946;SDS011;460;48.734;9.152;2023-06-04T06:41:28;1.50;;;1.40;;
946;SDS011;460;48.734;9.152;2023-06-04T06:43:55;1.35;;;1.25;;
946;SDS011;460;48.734;9.152;2023-06-04T06:46:22;1.10;;;1.00;;
946;SDS011;460;48.734;9.152;2023-06-04T06:48:49;2.80;;;1.43;;
946;SDS011;460;48.734;9.152;2023-06-04T06:51:16;1.27;;;1.17;;
946;SDS011;460;48.734;9.152;2023-06-04T06:53:43;1.30;;;1.20;;
946;SDS011;460;48.734;9.152;2023-06-04T06:56:10;1.47;;;1.30;;
946;SDS011;460;48.734;9.152;2023-06-04T06:58:38;2.47;;;1.70;;
946;SDS011;460;48.734;9.152;2023-06-04T07:01:05;1.20;;;1.10;;
946;SDS011;460;48.734;9.152;2023-06-04T07:03:32;2.03;;;1.60;;
946;SDS011;460;48.734;9.152;2023-06-04T07:05:59;1.20;;;1.10;;
946;SDS011;460;48.734;9.152;2023-06-04T07:08:25;2.13;;;1.27;;
946;SDS011;460;48.734;9.152;2023-06-04T07:10:53;1.57;;;1.30;;
946;SDS011;460;48.734;9.152;2023-06-04T07:13:20;1.17;;;1.07;;
946;SDS011;460;48.734;9.152;2023-06-04T07:15:48;1.70;;;1.20;;
946;SDS011;460;48.734;9.152;2023-06-04T07:18:15;1.47;;;1.37;;
946;SDS011;460;48.734;9.152;2023-06-04T07:20:42;1.70;;;1.60;;
946;SDS011;460;48.734;9.152;2023-06-04T07:23:08;1.37;;;1.30;;
946;SDS011;460;48.734;9.152;2023-06-04T07:25:35;2.70;;;2.40;;
946;SDS011;460;48.734;9.152;2023-06-04T07:28:02;1.57;;;1.30;;
946;SDS011;460;48.734;9.152;2023-06-04T07:30:30;1.30;;;1.13;;
946;SDS011;460;48.734;9.152;2023-06-04T07:32:58;1.53;;;1.43;;
946;SDS011;460;48.734;9.152;2023-06-04T07:35:25;2.07;;;1.80;;
946;SDS011;460;48.734;9.152;2023-06-04T07:37:55;1.37;;;1.27;;
946;SDS011;460;48.734;9.152;2023-06-04T07:40:21;1.80;;;1.30;;
946;SDS011;460;48.734;9.152;2023-06-04T07:42:48;1.50;;;1.40;;
946;SDS011;460;48.734;9.152;2023-06-04T07:45:15;1.57;;;1.47;;
946;SDS011;460;48.734;9.152;2023-06-04T07:47:42;2.33;;;1.53;;
946;SDS011;460;48.734;9.152;2023-06-04T07:50:11;1.57;;;1.43;;
946;SDS011;460;48.734;9.152;2023-06-04T07:52:37;2.83;;;2.60;;
946;SDS011;460;48.734;9.152;2023-06-04T07:55:05;3.73;;;1.40;;
946;SDS011;460;48.734;9.152;2023-06-04T07:57:33;1.43;;;1.33;;
946;SDS011;460;48.734;9.152;2023-06-04T08:00:01;1.60;;;1.50;;
946;SDS011;460;48.734;9.152;2023-06-04T08:02:30;1.50;;;1.40;;
946;SDS011;460;48.734;9.152;2023-06-04T08:04:57;1.40;;;1.30;;
946;SDS011;460;48.734;9.152;2023-06-04T08:07:25;1.60;;;1.50;;
946;SDS011;460;48.734;9.152;2023-06-04T08:09:52;1.30;;;1.20;;
946;SDS011;460;48.734;9.152;2023-06-04T08:12:20;1.87;;;1.67;;
946;SDS011;460;48.734;9.152;2023-06-04T08:14:47;1.40;;;1.30;;
946;SDS011;460;48.734;9.152;2023-06-04T08:17:15;2.20;;;1.70;;
946;SDS011;460;48.734;9.152;2023-06-04T08:19:42;1.13;;;1.13;;
946;SDS011;460;48.734;9.152;2023-06-04T08:22:08;2.30;;;1.80;;
946;SDS011;460;48.734;9.152;2023-06-04T08:24:37;1.80;;;1.40;;
946;SDS011;460;48.734;9.152;2023-06-04T08:27:05;2.73;;;1.27;;
946;SDS011;460;48.734;9.152;2023-06-04T08:29:33;1.67;;;1.57;;
946;SDS011;460;48.734;9.152;2023-06-04T08:32:00;2.73;;;1.60;;
946;SDS011;460;48.734;9.152;2023-06-04T08:34:27;1.90;;;1.53;;
946;SDS011;460;48.734;9.152;2023-06-04T08:36:54;3.00;;;1.20;;
946;SDS011;460;48.734;9.152;2023-06-04T08:39:21;1.77;;;1.30;;
946;SDS011;460;48.734;9.152;2023-06-04T08:41:51;2.30;;;1.53;;
946;SDS011;460;48.734;9.152;2023-06-04T08:44:20;1.80;;;1.70;;
946;SDS011;460;48.734;9.152;2023-06-04T08:46:49;2.10;;;1.90;;
946;SDS011;460;48.734;9.152;2023-06-04T08:49:19;1.33;;;1.23;;
946;SDS011;460;48.734;9.152;2023-06-04T08:51:47;1.83;;;1.50;;
946;SDS011;460;48.734;9.152;2023-06-04T08:54:14;1.43;;;1.33;;
946;SDS011;460;48.734;9.152;2023-06-04T08:56:41;1.93;;;1.70;;
946;SDS011;460;48.734;9.152;2023-06-04T08:59:11;2.00;;;1.57;;
946;SDS011;460;48.734;9.152;2023-06-04T09:01:39;2.43;;;2.20;;
946;SDS011;460;48.734;9.152;2023-06-04T09:04:09;2.30;;;2.10;;
946;SDS011;460;48.734;9.152;2023-06-04T09:06:37;2.57;;;2.37;;
946;SDS011;460;48.734;9.152;2023-06-04T09:09:05;2.20;;;2.00;;
946;SDS011;460;48.734;9.152;2023-06-04T09:11:36;2.13;;;1.53;;
946;SDS011;460;48.734;9.152;2023-06-04T09:14:07;1.70;;;1.60;;
946;SDS011;460;48.734;9.152;2023-06-04T09:16:43;1.57;;;1.47;;
946;SDS011;460;48.734;9.152;2023-06-04T09:19:10;1.63;;;1.53;;
946;SDS011;460;48.734;9.152;2023-06-04T09:21:47;4.30;;;2.10;;
946;SDS011;460;48.734;9.152;2023-06-04T09:24:15;2.17;;;2.07;;
946;SDS011;460;48.734;9.152;2023-06-04T09:26:42;2.07;;;1.87;;
946;SDS011;460;48.734;9.152;2023-06-04T09:29:08;2.37;;;2.17;;
946;SDS011;460;48.734;9.152;2023-06-04T09:31:35;2.53;;;2.17;;
946;SDS011;460;48.734;9.152;2023-06-04T09:34:05;3.07;;;1.97;;
946;SDS011;460;48.734;9.152;2023-06-04T09:36:33;1.80;;;1.70;;
946;SDS011;460;48.734;9.152;2023-06-04T09:39:00;2.00;;;1.90;;
946;SDS011;460;48.734;9.152;2023-06-04T09:41:30;3.23;;;2.70;;
946;SDS011;460;48.734;9.152;2023-06-04T09:44:00;1.80;;;1.70;;
946;SDS011;460;48.734;9.152;2023-06-04T09:46:28;2.20;;;1.80;;
946;SDS011;460;48.734;9.152;2023-06-04T09:48:59;1.73;;;1.63;;
946;SDS011;460;48.734;9.152;2023-06-04T09:51:28;1.73;;;1.40;;
946;SDS011;460;48.734;9.152;2023-06-04T09:53:56;2.97;;;1.70;;
946;SDS011;460;48.734;9.152;2023-06-04T09:56:24;2.40;;;2.20;;
946;SDS011;460;48.734;9.152;2023-06-04T09:58:53;1.63;;;1.53;;
946;SDS011;460;48.734;9.152;2023-06-04T10:01:21;1.60;;;1.50;;
946;SDS011;460;48.734;9.152;2023-06-04T10:03:50;3.27;;;2.10;;
946;SDS011;460;48.734;9.152;2023-06-04T10:06:18;2.10;;;1.90;;
946;SDS011;460;48.734;9.152;2023-06-04T10:08:47;2.30;;;2.03;;
946;SDS011;460;48.734;9.152;2023-06-04T10:11:17;2.30;;;2.10;;
946;SDS011;460;48.734;9.152;2023-06-04T10:13:48;1.97;;;1.87;;
946;SDS011;460;48.734;9.152;2023-06-04T10:16:20;3.13;;;2.37;;
946;SDS011;460;48.734;9.152;2023-06-04T10:18:47;2.70;;;2.50;;
946;SDS011;460;48.734;9.152;2023-06-04T10:21:15;2.43;;;2.17;;
946;SDS011;460;48.734;9.152;2023-06-04T10:23:43;2.60;;;2.40;;
946;SDS011;460;48.734;9.152;2023-06-04T10:26:14;2.50;;;2.30;;
946;SDS011;460;48.734;9.152;2023-06-04T10:28:41;2.83;;;2.40;;
946;SDS011;460;48.734;9.152;2023-06-04T10:31:08;2.70;;;2.50;;
946;SDS011;460;48.734;9.152;2023-06-04T10:33:35;2.37;;;2.20;;
946;SDS011;460;48.734;9.152;2023-06-04T10:36:15;2.10;;;1.90;;
946;SDS011;460;48.734;9.152;2023-06-04T10:38:47;3.40;;;2.70;;
946;SDS011;460;48.734;9.152;2023-06-04T10:41:16;2.47;;;2.27;;
946;SDS011;460;48.734;9.152;2023-06-04T10:43:44;2.30;;;2.10;;
946;SDS011;460;48.734;9.152;2023-06-04T10:46:14;2.23;;;2.13;;
946;SDS011;460;48.734;9.152;2023-06-04T10:48:45;2.40;;;2.20;;
946;SDS011;460;48.734;9.152;2023-06-04T10:51:13;2.50;;;2.30;;
946;SDS011;460;48.734;9.152;2023-06-04T10:53:40;3.00;;;2.50;;
946;SDS011;460;48.734;9.152;2023-06-04T10:56:06;1.87;;;1.77;;
946;SDS011;460;48.734;9.152;2023-06-04T10:58:35;5.30;;;2.13;;
946;SDS011;460;48.734;9.152;2023-06-04T11:01:02;3.20;;;2.50;;
946;SDS011;460;48.734;9.152;2023-06-04T11:03:34;2.00;;;1.87;;
946;SDS011;460;48.734;9.152;2023-06-04T11:06:02;2.27;;;2.07;;
946;SDS011;460;48.734;9.152;2023-06-04T11:08:40;4.80;;;3.00;;
946;SDS011;460;48.734;9.152;2023-06-04T11:11:10;3.23;;;2.30;;
946;SDS011;460;48.734;9.152;2023-06-04T11:13:38;3.23;;;2.93;;
946;SDS011;460;48.734;9.152;2023-06-04T11:16:13;3.03;;;2.73;;
946;SDS011;460;48.734;9.152;2023-06-04T11:18:42;2.30;;;2.10;;
946;SDS011;460;48.734;9.152;2023-06-04T11:21:08;2.73;;;2.53;;
946;SDS011;460;48.734;9.152;2023-06-04T11:23:36;2.47;;;2.27;;
946;SDS011;460;48.734;9.152;2023-06-04T11:26:03;2.30;;;2.10;;
946;SDS011;460;48.734;9.152;2023-06-04T11:28:30;2.80;;;2.50;;
946;SDS011;460;48.734;9.152;2023-06-04T11:30:59;3.03;;;2.77;;
946;SDS011;460;48.734;9.152;2023-06-04T11:33:28;2.90;;;2.60;;
946;SDS011;460;48.734;9.152;2023-06-04T11:35:55;2.47;;;2.27;;
946;SDS011;460;48.734;9.152;2023-06-04T11:38:21;4.83;;;2.30;;
946;SDS011;460;48.734;9.152;2023-06-04T11:40:54;3.03;;;2.47;;
946;SDS011;460;48.734;9.152;2023-06-04T11:43:22;2.43;;;2.23;;
946;SDS011;460;48.734;9.152;2023-06-04T11:45:49;3.43;;;2.40;;
946;SDS011;460;48.734;9.152;2023-06-04T11:48:18;2.73;;;2.53;;
946;SDS011;460;48.734;9.152;2023-06-04T11:50:46;2.73;;;2.50;;
946;SDS011;460;48.734;9.152;2023-06-04T11:53:12;2.50;;;2.30;;
946;SDS011;460;48.734;9.152;2023-06-04T11:55:39;4.40;;;2.17;;
946;SDS011;460;48.734;9.152;2023-06-04T11:58:06;2.20;;;2.10;;
946;SDS011;460;48.734;9.152;2023-06-04T12:00:33;2.60;;;1.83;;
946;SDS011;460;48.734;9.152;2023-06-04T12:03:00;2.30;;;1.97;;
946;SDS011;460;48.734;9.152;2023-06-04T12:05:29;2.53;;;2.33;;
946;SDS011;460;48.734;9.152;2023-06-04T12:08:04;2.70;;;2.50;;
946;SDS011;460;48.734;9.152;2023-06-04T12:10:36;3.40;;;3.10;;
946;SDS011;460;48.734;9.152;2023-06-04T12:13:03;3.60;;;2.90;;
946;SDS011;460;48.734;9.152;2023-06-04T12:15:30;3.20;;;2.70;;
946;SDS011;460;48.734;9.152;2023-06-04T12:17:57;4.03;;;2.33;;
946;SDS011;460;48.734;9.152;2023-06-04T12:20:33;2.67;;;2.43;;
946;SDS011;460;48.734;9.152;2023-06-04T12:23:01;2.93;;;2.73;;
946;SDS011;460;48.734;9.152;2023-06-04T12:25:28;2.90;;;2.70;;
946;SDS011;460;48.734;9.152;2023-06-04T12:27:56;2.60;;;2.40;;
946;SDS011;460;48.734;9.152;2023-06-04T12:30:23;1.80;;;1.70;;
946;SDS011;460;48.734;9.152;2023-06-04T12:33:00;2.30;;;1.80;;
946;SDS011;460;48.734;9.152;2023-06-04T12:35:27;2.80;;;2.60;;
946;SDS011;460;48.734;9.152;2023-06-04T12:37:55;2.60;;;2.40;;
946;SDS011;460;48.734;9.152;2023-06-04T12:40:22;3.03;;;2.73;;
946;SDS011;460;48.734;9.152;2023-06-04T12:42:49;2.13;;;2.03;;
946;SDS011;460;48.734;9.152;2023-06-04T12:45:16;2.57;;;2.37;;
946;SDS011;460;48.734;9.152;2023-06-04T12:47:43;3.20;;;2.90;;
946;SDS011;460;48.734;9.152;2023-06-04T12:50:11;2.50;;;2.37;;
946;SDS011;460;48.734;9.152;2023-06-04T12:52:38;2.70;;;2.50;;
946;SDS011;460;48.734;9.152;2023-06-04T12:55:07;2.40;;;2.20;;
946;SDS011;460;48.734;9.152;2023-06-04T12:57:35;2.83;;;2.63;;
946;SDS011;460;48.734;9.152;2023-06-04T13:00:02;2.73;;;2.50;;
946;SDS011;460;48.734;9.152;2023-06-04T13:02:29;2.60;;;2.40;;
946;SDS011;460;48.734;9.152;2023-06-04T13:04:56;2.50;;;2.30;;
946;SDS011;460;48.734;9.152;2023-06-04T13:07:23;2.43;;;2.23;;
946;SDS011;460;48.734;9.152;2023-06-04T13:09:50;2.97;;;2.77;;
946;SDS011;460;48.734;9.152;2023-06-04T13:12:18;2.67;;;2.47;;
946;SDS011;460;48.734;9.152;2023-06-04T13:14:45;2.80;;;1.83;;
946;SDS011;460;48.734;9.152;2023-06-04T13:17:11;2.63;;;2.40;;
946;SDS011;460;48.734;9.152;2023-06-04T13:19:38;2.53;;;2.33;;
946;SDS011;460;48.734;9.152;2023-06-04T13:22:05;2.43;;;2.30;;
946;SDS011;460;48.734;9.152;2023-06-04T13:24:32;2.47;;;2.27;;
946;SDS011;460;48.734;9.152;2023-06-04T13:26:58;1.93;;;1.83;;
946;SDS011;460;48.734;9.152;2023-06-04T13:29:27;2.40;;;2.20;;
946;SDS011;460;48.734;9.152;2023-06-04T13:31:58;2.33;;;2.13;;
946;SDS011;460;48.734;9.152;2023-06-04T13:34:25;2.57;;;2.37;;
946;SDS011;460;48.734;9.152;2023-06-04T13:36:52;2.20;;;2.00;;
946;SDS011;460;48.734;9.152;2023-06-04T13:39:19;2.33;;;2.13;;
946;SDS011;460;48.734;9.152;2023-06-04T13:41:47;2.33;;;2.20;;
946;SDS011;460;48.734;9.152;2023-06-04T13:44:14;2.37;;;2.17;;
946;SDS011;460;48.734;9.152;2023-06-04T13:46:42;3.23;;;3.00;;
946;SDS011;460;48.734;9.152;2023-06-04T13:49:09;3.33;;;2.20;;
946;SDS011;460;48.734;9.152;2023-06-04T13:51:35;2.47;;;2.27;;
946;SDS011;460;48.734;9.152;2023-06-04T13:54:02;1.83;;;1.73;;
946;SDS011;460;48.734;9.152;2023-06-04T13:56:29;2.97;;;2.77;;
946;SDS011;460;48.734;9.152;2023-06-04T13:58:56;2.03;;;1.83;;
946;SDS011;460;48.734;9.152;2023-06-04T14:01:23;2.17;;;1.97;;
946;SDS011;460;48.734;9.152;2023-06-04T14:03:51;2.60;;;2.40;;
946;SDS011;460;48.734;9.152;2023-06-04T14:06:18;2.23;;;2.00;;
946;SDS011;460;48.734;9.152;2023-06-04T14:08:45;2.87;;;2.37;;
946;SDS011;460;48.734;9.152;2023-06-04T14:11:11;1.80;;;1.70;;
946;SDS011;460;48.734;9.152;2023-06-04T14:13:38;2.63;;;2.43;;
946;SDS011;460;48.734;9.152;2023-06-04T14:16:06;2.13;;;1.93;;
946;SDS011;460;48.734;9.152;2023-06-04T14:18:33;2.47;;;1.80;;
946;SDS011;460;48.734;9.152;2023-06-04T14:21:01;2.80;;;2.60;;
946;SDS011;460;48.734;9.152;2023-06-04T14:23:27;2.20;;;2.07;;
946;SDS011;460;48.734;9.152;2023-06-04T14:25:54;2.57;;;2.37;;
946;SDS011;460;48.734;9.152;2023-06-04T14:28:21;2.50;;;2.30;;
946;SDS011;460;48.734;9.152;2023-06-04T14:30:48;2.33;;;1.90;;
946;SDS011;460;48.734;9.152;2023-06-04T14:33:15;2.30;;;2.10;;
946;SDS011;460;48.734;9.152;2023-06-04T14:35:42;1.77;;;1.60;;
946;SDS011;460;48.734;9.152;2023-06-04T14:38:13;2.70;;;2.47;;
946;SDS011;460;48.734;9.152;2023-06-04T14:40:40;2.70;;;2.20;;
946;SDS011;460;48.734;9.152;2023-06-04T14:43:08;2.63;;;2.40;;
946;SDS011;460;48.734;9.152;2023-06-04T14:45:36;2.20;;;2.00;;
946;SDS011;460;48.734;9.152;2023-06-04T14:48:04;2.37;;;2.20;;
946;SDS011;460;48.734;9.152;2023-06-04T14:50:31;2.50;;;2.27;;
946;SDS011;460;48.734;9.152;2023-06-04T14:52:58;1.70;;;1.60;;
946;SDS011;460;48.734;9.152;2023-06-04T14:55:26;2.20;;;2.10;;
946;SDS011;460;48.734;9.152;2023-06-04T14:57:53;2.23;;;2.03;;
946;SDS011;460;48.734;9.152;2023-06-04T15:00:20;1.73;;;1.63;;
946;SDS011;460;48.734;9.152;2023-06-04T15:02:47;2.27;;;2.10;;
946;SDS011;460;48.734;9.152;2023-06-04T15:05:14;3.10;;;2.10;;
946;SDS011;460;48.734;9.152;2023-06-04T15:07:40;2.30;;;2.20;;
946;SDS011;460;48.734;9.152;2023-06-04T15:10:07;2.10;;;1.90;;
946;SDS011;460;48.734;9.152;2023-06-04T15:12:36;2.40;;;2.20;;
946;SDS011;460;48.734;9.152;2023-06-04T15:15:05;3.47;;;2.53;;
946;SDS011;460;48.734;9.152;2023-06-04T15:17:33;1.90;;;1.73;;
946;SDS011;460;48.734;9.152;2023-06-04T15:20:00;2.10;;;1.90;;
946;SDS011;460;48.734;9.152;2023-06-04T15:22:27;2.23;;;2.10;;
946;SDS011;460;48.734;9.152;2023-06-04T15:24:54;2.40;;;2.20;;
946;SDS011;460;48.734;9.152;2023-06-04T15:27:21;2.40;;;2.13;;
946;SDS011;460;48.734;9.152;2023-06-04T15:29:49;2.60;;;2.10;;
946;SDS011;460;48.734;9.152;2023-06-04T15:32:17;2.40;;;1.60;;
946;SDS011;460;48.734;9.152;2023-06-04T15:34:44;2.30;;;1.90;;
946;SDS011;460;48.734;9.152;2023-06-04T15:37:10;2.93;;;2.67;;
946;SDS011;460;48.734;9.152;2023-06-04T15:39:37;2.23;;;2.07;;
946;SDS011;460;48.734;9.152;2023-06-04T15:42:04;4.10;;;2.20;;
946;SDS011;460;48.734;9.152;2023-06-04T15:44:31;2.60;;;2.40;;
946;SDS011;460;48.734;9.152;2023-06-04T15:47:00;2.20;;;2.00;;
946;SDS011;460;48.734;9.152;2023-06-04T15:49:27;2.30;;;1.97;;